Time;durP1;ratioP1;P1;durP2;ratioP2;P2;SDS_P1;SDS_P2;PMS_P1;PMS_P2;Temp;Humidity;BMP_temperature;BMP_pressure;BME280_temperature;BME280_humidity;BME280_pressure;Samples;Min_cycle;Max_cycle;Signal;HPM_P1;HPM_P2
2022/04/18 00:02:23;;;;;;;6.45;5.55;;;2.50;99.90;;;;;;5056652;28;20489;-84
2022/04/18 00:04:49;;;;;;;7.28;5.50;;;2.50;99.90;;;;;;5056298;28;20052;-85
2022/04/18 00:07:15;;;;;;;7.55;5.85;;;2.50;99.90;;;;;;5074132;28;20082;-84
2022/04/18 00:09:41;;;;;;;9.38;6.65;;;2.50;99.90;;;;;;5074165;28;20025;-85
2022/04/18 00:12:07;;;;;;;8.98;6.40;;;2.50;99.90;;;;;;5056432;28;20036;-85
2022/04/18 00:14:33;;;;;;;7.63;6.20;;;2.50;99.90;;;;;;5056217;28;20467;-85
2022/04/18 00:16:59;;;;;;;7.05;6.00;;;2.50;99.90;;;;;;5073947;28;20035;-85
2022/04/18 00:19:25;;;;;;;8.00;6.25;;;2.50;99.90;;;;;;5056255;28;20016;-84
2022/04/18 00:21:51;;;;;;;8.40;6.32;;;2.50;99.90;;;;;;5074149;28;20364;-85
2022/04/18 00:24:20;;;;;;;6.40;5.35;;;2.50;99.90;;;;;;5056298;28;20025;-85
2022/04/18 00:26:47;;;;;;;8.20;6.38;;;2.50;99.90;;;;;;5056299;28;20497;-85
2022/04/18 00:29:13;;;;;;;7.43;6.28;;;2.60;99.90;;;;;;5058700;28;20036;-85
2022/04/18 00:31:39;;;;;;;7.35;6.38;;;2.60;99.90;;;;;;5059926;28;20386;-85
2022/04/18 00:34:05;;;;;;;7.50;5.88;;;2.50;99.90;;;;;;5060142;28;20029;-84
2022/04/18 00:36:32;;;;;;;7.72;6.10;;;2.60;99.90;;;;;;5078253;28;20021;-85
2022/04/18 00:38:58;;;;;;;7.00;5.63;;;2.60;99.90;;;;;;5078010;28;20503;-85
2022/04/18 00:41:24;;;;;;;8.68;6.45;;;2.70;99.90;;;;;;5060194;28;20024;-84
2022/04/18 00:43:50;;;;;;;7.30;6.10;;;2.70;99.90;;;;;;5059807;28;20382;-85
2022/04/18 00:46:20;;;;;;;7.85;6.18;;;2.70;99.90;;;;;;5060228;28;20479;-84
2022/04/18 00:48:46;;;;;;;7.65;6.20;;;2.70;99.90;;;;;;5077781;28;20107;-84
2022/04/18 00:51:15;;;;;;;7.97;6.55;;;2.70;99.90;;;;;;5059652;28;20470;-84
2022/04/18 00:53:42;;;;;;;8.48;6.28;;;2.70;99.90;;;;;;5059789;28;20469;-84
2022/04/18 00:56:16;;;;;;;6.95;5.93;;;2.80;99.90;;;;;;5059754;28;20028;-84
2022/04/18 00:58:44;;;;;;;7.88;5.50;;;2.80;99.90;;;;;;5059692;28;20024;-84
2022/04/18 01:01:10;;;;;;;6.68;5.72;;;2.80;99.90;;;;;;5059728;28;20029;-83
2022/04/18 01:03:36;;;;;;;6.78;5.80;;;2.80;99.90;;;;;;5059455;28;20453;-85
2022/04/18 01:06:03;;;;;;;7.70;6.35;;;2.80;99.90;;;;;;5059528;28;20171;-85
2022/04/18 01:08:31;;;;;;;7.50;5.97;;;2.80;99.90;;;;;;5077479;28;20024;-85
2022/04/18 01:10:57;;;;;;;7.53;6.13;;;2.80;99.90;;;;;;5059332;28;20120;-84
2022/04/18 01:13:23;;;;;;;8.05;6.50;;;2.70;99.90;;;;;;5077152;28;20048;-84
2022/04/18 01:15:56;;;;;;;6.85;5.93;;;2.70;99.90;;;;;;5077182;28;20016;-83
2022/04/18 01:18:22;;;;;;;7.78;6.18;;;2.70;99.90;;;;;;5059268;28;20025;-84
2022/04/18 01:20:48;;;;;;;7.43;6.18;;;2.70;99.90;;;;;;5059284;28;20028;-84
2022/04/18 01:23:16;;;;;;;7.25;5.93;;;2.70;99.90;;;;;;5076961;28;20491;-84
2022/04/18 01:31:10;;;;;;;8.98;6.28;;;2.80;99.90;;;;;;5077263;28;20051;-84
2022/04/18 01:33:36;;;;;;;7.78;6.15;;;2.80;99.90;;;;;;5058994;28;20473;-84
2022/04/18 01:36:02;;;;;;;8.45;6.65;;;2.90;99.90;;;;;;5058803;28;20021;-84
2022/04/18 01:38:28;;;;;;;7.85;6.20;;;2.80;99.90;;;;;;5058835;28;20070;-83
2022/04/18 01:40:53;;;;;;;9.48;6.80;;;2.80;99.90;;;;;;5058082;28;20086;-84
2022/04/18 01:43:19;;;;;;;8.43;6.68;;;2.70;99.90;;;;;;5058742;28;20020;-84
2022/04/18 01:45:45;;;;;;;9.75;6.63;;;2.70;99.90;;;;;;5058823;28;20025;-85
2022/04/18 01:48:11;;;;;;;8.25;6.55;;;2.70;99.90;;;;;;5058771;28;20436;-84
2022/04/18 01:50:37;;;;;;;7.90;6.22;;;2.70;99.90;;;;;;5058841;28;20079;-84
2022/04/18 01:53:04;;;;;;;8.85;7.18;;;2.60;99.90;;;;;;5076552;28;20021;-84
2022/04/18 01:55:30;;;;;;;8.55;7.03;;;2.50;99.90;;;;;;5076443;28;20032;-84
2022/04/18 01:57:56;;;;;;;9.45;6.95;;;2.60;99.90;;;;;;5058514;28;20030;-84
2022/04/18 02:00:21;;;;;;;8.85;6.72;;;2.60;99.90;;;;;;5058347;28;20048;-84
2022/04/18 02:02:47;;;;;;;9.07;6.97;;;2.60;99.90;;;;;;5058428;28;20228;-84
2022/04/18 02:05:13;;;;;;;9.57;7.00;;;2.70;99.90;;;;;;5076058;28;20048;-84
2022/04/18 02:07:39;;;;;;;9.82;7.60;;;2.60;99.90;;;;;;5076209;28;20063;-84
2022/04/18 02:10:05;;;;;;;10.73;7.47;;;2.60;99.90;;;;;;5076048;28;20486;-84
2022/04/18 02:12:33;;;;;;;10.32;7.47;;;2.60;99.90;;;;;;5058239;28;20020;-84
2022/04/18 02:14:59;;;;;;;9.57;6.93;;;2.70;99.90;;;;;;5058175;28;20421;-84
2022/04/18 02:17:25;;;;;;;8.50;6.70;;;2.60;99.90;;;;;;5076005;28;20021;-84
2022/04/18 02:19:50;;;;;;;8.00;6.70;;;2.60;99.90;;;;;;5076206;28;20070;-84
2022/04/18 02:22:16;;;;;;;8.95;7.05;;;2.60;99.90;;;;;;5076197;28;20021;-85
2022/04/18 02:24:42;;;;;;;7.93;6.68;;;2.60;99.90;;;;;;5075872;28;20025;-84
2022/04/18 02:27:09;;;;;;;8.18;6.63;;;2.60;99.90;;;;;;5058167;28;20028;-84
2022/04/18 02:29:34;;;;;;;8.60;6.72;;;2.60;99.90;;;;;;5058073;28;20387;-83
2022/04/18 02:34:46;;;;;;;9.50;7.32;;;2.60;99.90;;;;;;5075821;28;20067;-85
2022/04/18 02:37:11;;;;;;;9.52;6.93;;;2.60;99.90;;;;;;5057783;28;20055;-84
2022/04/18 02:39:37;;;;;;;10.98;7.28;;;2.60;99.90;;;;;;5057628;28;20533;-84
2022/04/18 02:42:04;;;;;;;10.77;7.70;;;2.50;99.90;;;;;;5075757;28;20028;-83
2022/04/18 02:44:29;;;;;;;9.98;7.43;;;2.60;99.90;;;;;;5075522;28;20028;-84
2022/04/18 02:46:55;;;;;;;11.45;7.90;;;2.60;99.90;;;;;;5075611;28;20387;-84
2022/04/18 02:49:21;;;;;;;12.82;8.18;;;2.50;99.90;;;;;;5057401;28;20032;-85
2022/04/18 02:51:47;;;;;;;9.82;7.72;;;2.50;99.90;;;;;;5075222;28;20039;-84
2022/04/18 02:54:13;;;;;;;10.63;7.78;;;2.40;99.90;;;;;;5057474;28;20074;-85
2022/04/18 02:56:38;;;;;;;10.48;8.05;;;2.40;99.90;;;;;;5075448;28;20056;-85
2022/04/18 02:59:04;;;;;;;11.20;7.85;;;2.40;99.90;;;;;;5057459;28;20547;-85
2022/04/18 03:01:30;;;;;;;10.43;7.70;;;2.40;99.90;;;;;;5057450;28;20119;-84
2022/04/18 03:03:55;;;;;;;10.30;7.65;;;2.40;99.90;;;;;;5057371;28;20116;-85
2022/04/18 03:06:21;;;;;;;10.73;7.80;;;2.50;99.90;;;;;;5057149;28;20063;-84
2022/04/18 03:08:47;;;;;;;10.13;7.78;;;2.50;99.90;;;;;;5057284;28;20479;-84
2022/04/18 03:11:13;;;;;;;11.52;8.02;;;2.50;99.90;;;;;;5057128;28;20052;-84
2022/04/18 03:13:46;;;;;;;11.73;8.90;;;2.50;99.90;;;;;;5074876;28;20028;-84
2022/04/18 03:16:13;;;;;;;10.82;8.20;;;2.50;99.90;;;;;;5057060;28;20024;-84
2022/04/18 03:18:40;;;;;;;11.05;8.27;;;2.50;99.90;;;;;;5057222;28;20020;-84
2022/04/18 03:21:06;;;;;;;10.68;7.95;;;2.50;99.90;;;;;;5057024;28;20043;-85
2022/04/18 03:23:32;;;;;;;11.02;8.23;;;2.50;99.90;;;;;;5074653;28;20024;-84
2022/04/18 03:25:58;;;;;;;12.98;8.57;;;2.60;99.90;;;;;;5056869;28;20047;-84
2022/04/18 03:28:25;;;;;;;12.30;9.18;;;2.60;99.90;;;;;;5056830;28;20034;-84
2022/04/18 03:30:54;;;;;;;13.40;9.27;;;2.60;99.90;;;;;;5056733;28;20024;-84
2022/04/18 03:33:20;;;;;;;11.55;8.73;;;2.70;99.90;;;;;;5074509;28;20029;-84
2022/04/18 03:41:14;;;;;;;11.43;8.48;;;2.70;99.90;;;;;;5074874;28;20058;-84
2022/04/18 03:43:40;;;;;;;11.40;8.70;;;2.70;99.90;;;;;;5056382;28;20463;-84
2022/04/18 03:46:06;;;;;;;11.82;8.65;;;2.70;99.90;;;;;;5056454;28;20020;-84
2022/04/18 03:48:32;;;;;;;10.68;8.02;;;2.70;99.90;;;;;;5056478;28;20036;-84
2022/04/18 03:50:58;;;;;;;10.60;7.90;;;2.70;99.90;;;;;;5056484;28;20056;-83
2022/04/18 03:53:23;;;;;;;10.57;7.70;;;2.70;99.90;;;;;;5056207;28;20067;-84
2022/04/18 03:55:49;;;;;;;11.13;8.45;;;2.80;99.90;;;;;;5056463;28;20128;-84
2022/04/18 03:58:15;;;;;;;11.32;8.70;;;2.90;99.90;;;;;;5056352;28;20055;-84
2022/04/18 04:00:43;;;;;;;11.15;7.95;;;2.80;99.90;;;;;;5056337;28;20443;-84
2022/04/18 04:03:10;;;;;;;11.65;8.88;;;2.90;99.90;;;;;;5073515;28;20025;-84
2022/04/18 04:05:37;;;;;;;14.57;9.23;;;2.90;99.90;;;;;;5073885;28;20045;-84
2022/04/18 04:08:03;;;;;;;11.02;8.30;;;2.90;99.90;;;;;;5056303;28;20071;-84
2022/04/18 04:10:28;;;;;;;10.43;8.25;;;2.90;99.90;;;;;;5073866;28;20478;-84
2022/04/18 04:12:54;;;;;;;11.65;8.65;;;2.90;99.90;;;;;;5056271;28;20073;-84
2022/04/18 04:15:20;;;;;;;10.20;7.97;;;2.90;99.90;;;;;;5056073;28;20021;-84
2022/04/18 04:17:46;;;;;;;11.15;8.27;;;3.00;99.90;;;;;;5074087;28;20017;-84
2022/04/18 04:20:11;;;;;;;12.15;8.50;;;3.10;99.90;;;;;;5073861;28;20021;-84
2022/04/18 04:22:44;;;;;;;10.55;8.15;;;3.00;99.90;;;;;;5073919;28;20086;-84
2022/04/18 04:25:09;;;;;;;11.35;8.52;;;3.00;99.90;;;;;;5056121;28;20463;-84
2022/04/18 04:27:35;;;;;;;10.73;8.18;;;3.00;99.90;;;;;;5073848;28;20092;-84
2022/04/18 04:30:01;;;;;;;9.40;7.93;;;3.00;99.90;;;;;;5073592;28;20051;-84
2022/04/18 04:32:27;;;;;;;11.18;7.95;;;3.00;99.90;;;;;;5056000;28;20104;-84
2022/04/18 04:34:53;;;;;;;11.38;9.15;;;3.10;99.90;;;;;;5055974;28;20435;-84
2022/04/18 04:37:19;;;;;;;9.57;7.45;;;3.10;99.90;;;;;;5073722;28;20035;-84
2022/04/18 04:39:44;;;;;;;9.82;7.60;;;3.20;99.90;;;;;;5055789;28;20031;-83
2022/04/18 04:42:10;;;;;;;8.80;7.57;;;3.30;99.90;;;;;;5055874;28;20028;-84
2022/04/18 04:44:36;;;;;;;9.80;7.63;;;3.30;99.90;;;;;;5073687;28;20491;-83
2022/04/18 04:47:04;;;;;;;9.38;7.65;;;3.30;99.90;;;;;;5055518;28;20131;-84
2022/04/18 04:49:29;;;;;;;8.15;7.00;;;3.40;99.90;;;;;;5073517;28;20055;-85
2022/04/18 04:51:55;;;;;;;10.07;7.50;;;3.40;99.90;;;;;;5055642;28;20025;-83
2022/04/18 04:54:21;;;;;;;10.75;7.65;;;3.50;99.90;;;;;;5055484;28;20065;-84
2022/04/18 04:56:47;;;;;;;8.35;7.03;;;3.50;99.90;;;;;;5055537;28;20113;-84
2022/04/18 04:59:12;;;;;;;8.43;7.10;;;3.40;99.90;;;;;;5055613;28;20067;-83
2022/04/18 05:01:38;;;;;;;7.90;6.38;;;3.50;99.90;;;;;;5073316;28;20423;-84
2022/04/18 05:04:04;;;;;;;6.90;6.15;;;3.50;99.90;;;;;;5055600;28;20032;-84
2022/04/18 05:06:30;;;;;;;9.13;6.25;;;3.50;99.90;;;;;;5073432;28;20479;-84
2022/04/18 05:08:55;;;;;;;7.05;6.10;;;3.40;99.90;;;;;;5073194;28;20043;-83
2022/04/18 05:11:21;;;;;;;6.82;5.97;;;3.40;99.90;;;;;;5073371;28;20032;-84
2022/04/18 05:13:47;;;;;;;8.50;6.32;;;3.50;99.90;;;;;;5055467;28;20021;-84
2022/04/18 05:16:13;;;;;;;7.13;6.05;;;3.70;99.90;;;;;;5059111;28;20056;-83
2022/04/18 05:18:39;;;;;;;7.57;5.63;;;3.60;99.90;;;;;;5059106;28;20459;-84
2022/04/18 05:21:05;;;;;;;5.93;5.00;;;3.70;99.90;;;;;;5059098;28;20029;-83
2022/04/18 05:23:30;;;;;;;5.93;5.20;;;3.70;99.90;;;;;;5058833;28;20024;-84
2022/04/18 05:25:56;;;;;;;5.97;5.38;;;3.70;99.90;;;;;;5077094;28;20103;-83
2022/04/18 05:28:22;;;;;;;5.22;4.68;;;3.80;99.90;;;;;;5059075;28;20035;-84
2022/04/18 05:30:48;;;;;;;6.85;5.03;;;3.90;99.90;;;;;;5076807;28;20029;-84
2022/04/18 05:33:14;;;;;;;5.82;5.22;;;4.00;99.90;;;;;;5058960;28;20021;-83
2022/04/18 05:35:39;;;;;;;5.97;5.35;;;4.00;99.90;;;;;;5076642;28;20082;-83
2022/04/18 05:38:05;;;;;;;5.75;5.18;;;4.00;99.90;;;;;;5076494;28;20111;-83
2022/04/18 05:40:31;;;;;;;5.40;4.90;;;4.00;99.90;;;;;;5058572;28;20409;-84
2022/04/18 05:42:57;;;;;;;5.28;4.78;;;4.20;99.90;;;;;;5058751;28;20028;-85
2022/04/18 05:45:23;;;;;;;5.38;4.80;;;4.30;99.90;;;;;;5058890;28;20095;-84
2022/04/18 05:47:49;;;;;;;5.03;4.53;;;4.30;99.90;;;;;;5058565;28;20025;-84
2022/04/18 05:50:15;;;;;;;4.78;4.28;;;4.40;99.90;;;;;;5076312;28;20024;-85
2022/04/18 05:52:41;;;;;;;5.05;4.40;;;4.40;99.90;;;;;;5058248;28;20383;-83
2022/04/18 05:55:07;;;;;;;4.22;3.83;;;4.50;99.90;;;;;;5058724;28;20032;-84
2022/04/18 05:57:33;;;;;;;4.40;4.00;;;4.60;99.90;;;;;;5076281;28;20438;-83
2022/04/18 05:59:59;;;;;;;5.07;4.30;;;4.70;99.90;;;;;;5058345;28;20063;-83
2022/04/18 06:02:24;;;;;;;4.20;3.80;;;4.70;99.90;;;;;;5058359;28;20027;-84
2022/04/18 06:04:50;;;;;;;4.85;3.90;;;4.90;99.90;;;;;;5076131;28;20098;-84
2022/04/18 06:07:16;;;;;;;4.60;4.20;;;4.90;99.90;;;;;;5058389;28;20074;-83
2022/04/18 06:09:42;;;;;;;4.47;4.07;;;4.90;99.90;;;;;;5058216;28;20021;-84
2022/04/18 06:12:08;;;;;;;4.30;3.90;;;5.00;99.50;;;;;;5076002;28;20040;-84
2022/04/18 06:14:34;;;;;;;5.10;4.22;;;5.00;99.70;;;;;;5075963;28;20017;-85
2022/04/18 06:17:00;;;;;;;4.18;3.78;;;5.00;99.10;;;;;;5058054;28;20016;-84
2022/04/18 06:19:25;;;;;;;5.88;4.20;;;5.10;99.80;;;;;;5076245;28;20025;-84
2022/04/18 06:21:51;;;;;;;4.30;3.90;;;5.20;98.90;;;;;;5057690;28;20470;-84
2022/04/18 06:24:18;;;;;;;5.80;4.90;;;5.30;99.50;;;;;;5057753;28;20033;-83
2022/04/18 06:26:44;;;;;;;4.70;4.22;;;5.20;98.20;;;;;;5057204;28;20030;-84
2022/04/18 06:29:10;;;;;;;4.65;4.25;;;5.30;98.80;;;;;;5057487;28;20028;-84
2022/04/18 06:31:36;;;;;;;4.47;4.07;;;5.40;99.00;;;;;;5057640;28;20114;-83
2022/04/18 06:34:02;;;;;;;5.03;4.28;;;5.60;98.00;;;;;;5057918;28;20071;-84
2022/04/18 06:36:28;;;;;;;4.97;4.47;;;5.60;97.70;;;;;;5057447;28;20025;-84
2022/04/18 06:38:53;;;;;;;4.63;4.22;;;5.50;97.50;;;;;;5075457;28;20487;-84
2022/04/18 06:41:19;;;;;;;5.03;4.53;;;5.50;97.90;;;;;;5057468;28;20498;-84
2022/04/18 06:43:45;;;;;;;8.82;6.57;;;5.50;98.10;;;;;;5057416;28;20024;-84
2022/04/18 06:46:10;;;;;;;4.93;4.43;;;5.50;96.70;;;;;;5057358;28;20020;-83
2022/04/18 06:48:36;;;;;;;4.53;4.13;;;5.50;97.20;;;;;;5075261;28;20426;-84
2022/04/18 06:51:02;;;;;;;5.13;4.60;;;5.50;97.30;;;;;;5057321;28;20067;-84
2022/04/18 06:53:28;;;;;;;5.05;4.55;;;5.60;97.50;;;;;;5075112;28;20028;-84
2022/04/18 06:58:39;;;;;;;5.35;4.65;;;5.70;97.40;;;;;;5075615;28;20039;-84
2022/04/18 07:01:05;;;;;;;9.18;7.82;;;5.80;96.80;;;;;;5074958;28;20027;-84
2022/04/18 07:03:30;;;;;;;9.30;7.13;;;5.80;97.10;;;;;;5057030;28;20043;-84
2022/04/18 07:05:56;;;;;;;7.15;5.07;;;5.80;97.00;;;;;;5056960;28;20044;-84
2022/04/18 07:08:22;;;;;;;4.70;4.18;;;5.80;96.70;;;;;;5056950;28;20043;-84
2022/04/18 07:10:48;;;;;;;4.32;3.92;;;5.90;95.80;;;;;;5074791;28;20115;-84
2022/04/18 07:13:14;;;;;;;4.90;4.40;;;5.90;96.00;;;;;;5056720;28;20025;-84
2022/04/18 07:15:40;;;;;;;5.18;4.40;;;5.90;95.80;;;;;;5057032;28;20025;-84
2022/04/18 07:18:06;;;;;;;6.28;5.68;;;5.90;95.70;;;;;;5056660;28;20025;-83
2022/04/18 07:20:32;;;;;;;10.90;8.05;;;5.80;95.20;;;;;;5074690;28;20024;-83
2022/04/18 07:22:58;;;;;;;7.95;6.18;;;5.80;96.00;;;;;;5056619;28;20039;-84
2022/04/18 07:25:23;;;;;;;6.50;5.00;;;6.00;95.50;;;;;;5056810;28;20036;-83
2022/04/18 07:27:49;;;;;;;49.17;30.65;;;6.00;95.10;;;;;;5074226;28;20383;-84
2022/04/18 07:30:15;;;;;;;16.05;12.30;;;6.00;94.70;;;;;;5056478;28;20027;-83
2022/04/18 07:32:42;;;;;;;7.63;6.43;;;6.10;95.00;;;;;;5056622;28;20016;-84
2022/04/18 07:35:09;;;;;;;4.68;4.20;;;6.20;94.90;;;;;;5056496;28;20048;-84
2022/04/18 07:37:35;;;;;;;5.10;4.40;;;6.40;94.20;;;;;;5055632;28;20025;-83
2022/04/18 07:40:01;;;;;;;5.32;4.63;;;6.40;93.80;;;;;;5056282;28;20455;-83
2022/04/18 07:42:27;;;;;;;6.70;5.22;;;6.30;93.20;;;;;;5074384;28;20025;-83
2022/04/18 07:44:52;;;;;;;4.03;3.63;;;6.30;93.10;;;;;;5056344;28;20034;-84
2022/04/18 07:47:18;;;;;;;7.97;5.10;;;6.40;92.70;;;;;;5056084;28;20066;-84
2022/04/18 07:49:44;;;;;;;4.05;3.50;;;6.30;92.80;;;;;;5056411;28;20123;-84
2022/04/18 07:52:12;;;;;;;3.70;3.40;;;6.10;92.10;;;;;;5073923;28;20021;-84
2022/04/18 07:54:38;;;;;;;6.25;4.32;;;6.30;92.50;;;;;;5056267;28;20024;-83
2022/04/18 07:57:05;;;;;;;6.28;4.15;;;6.50;92.50;;;;;;5074057;28;20122;-82
2022/04/18 07:59:31;;;;;;;7.40;4.90;;;6.60;91.90;;;;;;5056058;28;20120;-83
2022/04/18 08:01:57;;;;;;;4.43;3.47;;;6.80;91.30;;;;;;5056228;28;20359;-84
2022/04/18 08:04:22;;;;;;;5.47;3.20;;;7.00;91.30;;;;;;5056112;28;20021;-84
2022/04/18 08:06:48;;;;;;;3.65;3.35;;;7.20;90.40;;;;;;5055819;28;20055;-84
2022/04/18 08:09:14;;;;;;;5.90;4.22;;;7.30;90.20;;;;;;5055902;28;20514;-84
2022/04/18 08:11:40;;;;;;;4.93;3.85;;;7.20;89.90;;;;;;5055907;28;20055;-83
2022/04/18 08:14:05;;;;;;;6.68;5.13;;;7.10;89.70;;;;;;5055720;28;20028;-83
2022/04/18 08:16:31;;;;;;;6.97;5.18;;;7.10;90.70;;;;;;5055881;28;20345;-85
2022/04/18 08:18:57;;;;;;;10.93;7.93;;;7.20;91.00;;;;;;5055973;28;20107;-84
2022/04/18 08:21:23;;;;;;;5.18;4.68;;;7.20;91.30;;;;;;5055736;28;20379;-83
2022/04/18 08:23:53;;;;;;;7.75;5.05;;;7.00;90.70;;;;;;5055896;28;20029;-84
2022/04/18 08:26:21;;;;;;;4.88;4.32;;;6.90;91.20;;;;;;5055992;28;20078;-83
2022/04/18 08:28:47;;;;;;;4.85;4.35;;;6.90;91.40;;;;;;5055858;28;20039;-84
2022/04/18 08:31:13;;;;;;;4.93;4.20;;;6.90;91.10;;;;;;5055850;28;20044;-83
2022/04/18 08:33:39;;;;;;;6.35;4.80;;;6.70;91.10;;;;;;5055508;28;20027;-83
2022/04/18 08:36:05;;;;;;;9.52;5.28;;;6.80;92.00;;;;;;5073809;28;20016;-83
2022/04/18 08:38:31;;;;;;;5.20;4.43;;;7.10;91.80;;;;;;5073618;28;20055;-84
2022/04/18 08:41:00;;;;;;;4.90;4.30;;;7.30;90.90;;;;;;5055702;28;20077;-85
2022/04/18 08:43:26;;;;;;;5.53;4.67;;;7.30;89.70;;;;;;5055830;28;20494;-85
2022/04/18 08:45:53;;;;;;;4.97;4.38;;;7.30;90.10;;;;;;5073611;28;20245;-83
2022/04/18 08:53:48;;;;;;;7.70;5.75;;;7.00;90.10;;;;;;5078092;28;20031;-83
2022/04/18 08:56:14;;;;;;;7.38;5.65;;;6.90;90.30;;;;;;5059707;28;20037;-84
2022/04/18 08:58:40;;;;;;;4.60;4.20;;;6.90;90.50;;;;;;5059631;28;20027;-83
2022/04/18 09:01:07;;;;;;;8.48;6.43;;;7.00;90.40;;;;;;5059341;28;20033;-86
2022/04/18 09:03:36;;;;;;;6.30;5.25;;;7.10;90.00;;;;;;5077521;28;20025;-83
2022/04/18 09:06:11;;;;;;;3.90;3.60;;;7.30;90.30;;;;;;5059100;28;20066;-83
2022/04/18 09:08:57;;;;;;;7.22;6.53;;;7.50;88.90;;;;;;5059234;28;20029;-84
2022/04/18 09:11:32;;;;;;;4.15;3.75;;;7.80;89.70;;;;;;5059154;28;20459;-84
2022/04/18 09:14:15;;;;;;;4.47;4.07;;;7.80;89.60;;;;;;5076949;28;20032;-84
2022/04/18 09:16:42;;;;;;;4.50;4.10;;;7.90;89.20;;;;;;5059079;28;20364;-84
2022/04/18 09:19:12;;;;;;;4.30;3.90;;;8.10;89.90;;;;;;5058865;28;20028;-83
2022/04/18 09:21:43;;;;;;;4.55;4.15;;;8.10;88.50;;;;;;5058810;28;20024;-84
2022/04/18 09:24:34;;;;;;;3.88;3.50;;;8.00;88.30;;;;;;5076788;28;20029;-84
2022/04/18 09:27:06;;;;;;;4.35;3.65;;;8.10;86.90;;;;;;5059035;28;20379;-84
2022/04/18 09:29:38;;;;;;;4.40;3.67;;;8.00;85.70;;;;;;5058892;28;20024;-83
2022/04/18 09:32:12;;;;;;;3.60;3.30;;;8.10;86.40;;;;;;5058817;28;20025;-84
2022/04/18 14:29:17;;;;;;;8.30;4.15;;;8.00;84.20;;;;;;5126531;27;20415;-85
2022/04/18 14:31:42;;;;;;;4.63;3.75;;;7.60;85.30;;;;;;5109214;28;20057;-84
2022/04/18 14:34:08;;;;;;;4.03;3.58;;;7.50;85.90;;;;;;5109447;28;20020;-85
2022/04/18 14:36:35;;;;;;;4.95;3.92;;;7.30;85.60;;;;;;5110512;28;20091;-84
2022/04/18 14:39:00;;;;;;;4.63;4.05;;;7.20;86.80;;;;;;5110415;28;20020;-85
2022/04/18 14:41:27;;;;;;;4.70;3.90;;;7.20;87.30;;;;;;5109692;28;20081;-85
2022/04/18 14:43:53;;;;;;;4.68;3.95;;;7.40;87.60;;;;;;5110242;28;20028;-87
2022/04/18 14:46:19;;;;;;;5.88;4.70;;;7.40;87.50;;;;;;5110285;28;20051;-86
2022/04/18 14:48:44;;;;;;;4.60;4.15;;;7.30;88.00;;;;;;5111903;28;20028;-86
2022/04/18 14:51:10;;;;;;;4.75;3.83;;;7.20;87.70;;;;;;5110676;28;20026;-87
2022/04/18 14:53:36;;;;;;;9.27;6.60;;;7.20;87.50;;;;;;5110439;28;20535;-83
2022/04/18 14:56:03;;;;;;;16.23;8.68;;;7.10;88.10;;;;;;5110491;28;20031;-85
2022/04/18 14:58:29;;;;;;;6.85;5.00;;;7.10;89.00;;;;;;5110201;28;20080;-85
2022/04/18 15:00:56;;;;;;;11.32;7.30;;;7.10;89.30;;;;;;5111134;28;20032;-86
2022/04/18 15:03:21;;;;;;;24.52;13.23;;;7.10;89.80;;;;;;5110012;28;20038;-85
2022/04/18 15:05:47;;;;;;;15.88;8.90;;;7.20;89.40;;;;;;5111550;28;20020;-86
2022/04/18 15:08:13;;;;;;;8.90;5.25;;;7.30;89.00;;;;;;5110023;28;20056;-86
2022/04/18 15:10:39;;;;;;;15.48;8.38;;;7.30;88.90;;;;;;5110112;28;20124;-85
2022/04/18 15:13:05;;;;;;;12.57;8.10;;;7.40;88.50;;;;;;5110159;28;20031;-86
2022/04/18 15:15:31;;;;;;;52.67;24.52;;;7.30;88.80;;;;;;5110099;28;20042;-86
2022/04/18 15:17:56;;;;;;;12.10;7.53;;;7.20;89.10;;;;;;5109852;28;20032;-86
2022/04/18 15:20:22;;;;;;;36.03;16.95;;;7.30;89.80;;;;;;5111132;28;20028;-85
2022/04/18 15:22:48;;;;;;;20.40;10.55;;;7.30;90.10;;;;;;5109963;28;20028;-85
2022/04/18 15:25:14;;;;;;;43.47;20.95;;;7.20;90.00;;;;;;5109917;28;20023;-86
2022/04/18 15:27:40;;;;;;;20.17;11.98;;;7.20;90.20;;;;;;5110592;28;20059;-85
2022/04/18 15:32:51;;;;;;;7.10;5.70;;;7.10;90.40;;;;;;5111174;28;20059;-85
2022/04/18 15:35:19;;;;;;;4.88;4.38;;;7.10;90.40;;;;;;5110786;28;20020;-86
2022/04/18 15:37:45;;;;;;;4.95;4.45;;;7.00;90.10;;;;;;5109641;28;20367;-86
2022/04/18 15:40:11;;;;;;;7.30;4.78;;;7.00;90.30;;;;;;5098622;28;20024;-86
2022/04/18 15:42:39;;;;;;;4.40;3.85;;;6.90;90.60;;;;;;5095986;28;20088;-86
2022/04/18 15:45:05;;;;;;;4.78;3.95;;;6.80;90.90;;;;;;5095797;28;20031;-85
2022/04/18 15:47:31;;;;;;;9.35;6.18;;;6.80;91.20;;;;;;5095977;28;20052;-86
2022/04/18 15:49:57;;;;;;;10.88;8.13;;;6.80;91.30;;;;;;5095866;28;20470;-86
2022/04/18 15:52:22;;;;;;;6.50;4.78;;;6.80;91.40;;;;;;5095770;28;20028;-86
2022/04/18 15:54:48;;;;;;;5.20;4.57;;;6.80;91.50;;;;;;5096892;28;20020;-86
2022/04/18 15:57:14;;;;;;;5.75;4.20;;;6.80;91.70;;;;;;5095745;28;20024;-86
2022/04/18 15:59:40;;;;;;;6.30;4.43;;;6.70;91.30;;;;;;5095795;28;20082;-87
2022/04/18 16:02:07;;;;;;;9.50;5.93;;;6.70;91.40;;;;;;5095591;28;20028;-85
2022/04/18 16:04:33;;;;;;;6.53;5.05;;;6.70;91.50;;;;;;5095552;28;20024;-86
2022/04/18 16:06:59;;;;;;;7.47;5.43;;;6.60;91.70;;;;;;5095509;28;20508;-86
2022/04/18 16:09:25;;;;;;;11.52;6.90;;;6.50;91.70;;;;;;5095443;28;20020;-86
2022/04/18 16:11:51;;;;;;;7.28;5.22;;;6.50;91.70;;;;;;5095329;28;20386;-86
2022/04/18 16:14:17;;;;;;;6.28;4.90;;;6.50;91.60;;;;;;5095569;28;20409;-86
2022/04/18 16:16:43;;;;;;;5.75;4.75;;;6.50;91.70;;;;;;5095540;28;20024;-86
2022/04/18 16:19:08;;;;;;;5.43;4.75;;;6.50;92.00;;;;;;5096446;28;20148;-84
2022/04/18 16:21:34;;;;;;;7.65;4.60;;;6.50;92.00;;;;;;5096367;28;20028;-85
2022/04/18 16:24:00;;;;;;;5.18;4.30;;;6.50;92.00;;;;;;5096598;28;20429;-88
2022/04/18 16:26:27;;;;;;;4.70;4.07;;;6.40;92.20;;;;;;5095175;28;20028;-86
2022/04/18 16:31:49;;;;;;;5.32;4.63;;;6.40;92.20;;;;;;5094851;28;20056;-86
2022/04/18 16:31:50;;;;;;;5.43;4.75;;;6.40;92.30;;;;;;5096022;28;20402;-85
2022/04/18 16:34:25;;;;;;;6.03;4.53;;;6.30;92.30;;;;;;5096066;28;20020;-86
2022/04/18 16:36:52;;;;;;;5.07;4.18;;;6.20;92.50;;;;;;5095104;28;20024;-86
2022/04/18 16:39:19;;;;;;;4.68;4.03;;;6.30;92.60;;;;;;5096098;28;20024;-86
2022/04/18 16:47:14;;;;;;;4.85;4.18;;;6.20;93.20;;;;;;5095990;28;20031;-85
2022/04/18 16:49:40;;;;;;;5.00;4.50;;;6.20;93.20;;;;;;5094788;28;20348;-85
2022/04/18 16:52:06;;;;;;;5.68;4.30;;;6.20;93.20;;;;;;5094750;28;20028;-86
2022/04/18 16:54:32;;;;;;;5.38;4.55;;;6.20;93.30;;;;;;5094535;28;20024;-85
2022/04/18 16:56:58;;;;;;;6.57;4.40;;;6.10;93.60;;;;;;5094611;28;20099;-85
2022/04/18 16:59:24;;;;;;;5.18;4.50;;;6.10;93.80;;;;;;5095519;28;20097;-86
2022/04/18 17:01:50;;;;;;;4.93;4.30;;;6.00;94.20;;;;;;5094370;28;20020;-86
2022/04/18 17:04:16;;;;;;;5.55;4.57;;;6.10;94.40;;;;;;5095531;28;20360;-86
2022/04/18 17:06:41;;;;;;;5.97;5.10;;;6.10;94.40;;;;;;5094313;28;20020;-86
2022/04/18 17:09:07;;;;;;;6.00;4.93;;;6.10;94.40;;;;;;5095441;28;20024;-86
2022/04/18 17:11:33;;;;;;;6.30;5.05;;;6.10;94.60;;;;;;5094208;28;20020;-86
2022/04/18 17:13:58;;;;;;;7.97;5.60;;;6.00;94.90;;;;;;5095241;28;20027;-86
2022/04/18 17:16:26;;;;;;;7.97;5.57;;;6.00;95.00;;;;;;5094219;28;20020;-86
2022/04/18 17:18:52;;;;;;;5.93;5.18;;;6.00;95.20;;;;;;5093981;28;20448;-86
2022/04/18 17:21:18;;;;;;;5.90;5.20;;;5.90;95.20;;;;;;5095165;28;20020;-86
2022/04/18 17:23:43;;;;;;;6.35;5.22;;;5.90;95.20;;;;;;5093985;28;20363;-86
2022/04/18 17:26:09;;;;;;;5.93;5.03;;;5.80;95.30;;;;;;5093946;28;20474;-86
2022/04/18 17:28:35;;;;;;;6.57;5.07;;;5.80;95.50;;;;;;5093513;28;20072;-85
2022/04/18 17:31:01;;;;;;;6.18;4.97;;;5.80;95.80;;;;;;5095331;28;20043;-85
2022/04/18 17:33:29;;;;;;;10.13;6.18;;;5.80;96.10;;;;;;5094066;28;20055;-86
2022/04/18 17:35:55;;;;;;;9.63;5.90;;;5.80;96.20;;;;;;5093932;28;20024;-86
2022/04/18 17:38:21;;;;;;;9.82;6.93;;;5.80;96.80;;;;;;5094852;28;20020;-85
2022/04/18 17:40:47;;;;;;;7.93;6.13;;;5.80;97.00;;;;;;5093809;28;20024;-86
2022/04/18 17:43:12;;;;;;;7.85;5.93;;;5.80;97.30;;;;;;5093682;28;20112;-85
2022/04/18 17:45:38;;;;;;;8.52;6.43;;;5.70;97.60;;;;;;5093686;28;20114;-85
2022/04/18 17:48:04;;;;;;;7.25;5.63;;;5.60;98.10;;;;;;5093499;28;20024;-86
2022/04/18 17:50:31;;;;;;;8.18;6.38;;;5.60;98.30;;;;;;5093503;28;20052;-85
2022/04/18 17:52:57;;;;;;;9.13;7.22;;;5.60;98.60;;;;;;5093454;28;20540;-86
2022/04/18 17:58:06;;;;;;;9.43;7.10;;;5.40;99.60;;;;;;5095026;28;20088;-86
2022/04/18 18:00:32;;;;;;;7.90;6.40;;;5.40;99.90;;;;;;5093297;28;20444;-86
2022/04/18 18:02:58;;;;;;;6.97;6.15;;;5.30;99.90;;;;;;5094352;28;20031;-85
2022/04/18 18:05:25;;;;;;;8.10;6.55;;;5.30;99.90;;;;;;5092321;28;20024;-85
2022/04/18 18:07:52;;;;;;;11.43;7.85;;;5.40;99.90;;;;;;5094097;28;20068;-85
2022/04/18 18:10:18;;;;;;;8.43;7.15;;;5.30;99.90;;;;;;5094081;28;20016;-87
2022/04/18 18:12:44;;;;;;;7.15;6.22;;;5.30;99.90;;;;;;5092914;28;20551;-85
2022/04/18 18:15:09;;;;;;;8.57;6.50;;;5.40;99.90;;;;;;5093137;28;20391;-85
2022/04/18 18:17:37;;;;;;;9.18;7.10;;;5.30;99.90;;;;;;5093719;28;20395;-84
2022/04/18 18:20:07;;;;;;;9.68;5.95;;;5.30;99.90;;;;;;5092607;28;20035;-85